sensor_id;sensor_type;location;lat;lon;timestamp;pressure;altitude;pressure_sealevel;temperature;humidity
29549;BME280;16487;53.094;8.800;2023-06-14T00:02:48;101755.19;;;16.55;100.00
29549;BME280;16487;53.094;8.800;2023-06-14T00:05:36;101756.00;;;16.65;100.00
29549;BME280;16487;53.094;8.800;2023-06-14T00:08:23;101752.59;;;16.70;100.00
29549;BME280;16487;53.094;8.800;2023-06-14T00:11:11;101752.25;;;16.59;100.00
29549;BME280;16487;53.094;8.800;2023-06-14T00:13:59;101747.38;;;16.59;100.00
29549;BME280;16487;53.094;8.800;2023-06-14T00:16:47;101747.78;;;16.49;100.00
29549;BME280;16487;53.094;8.800;2023-06-14T00:19:36;101738.44;;;16.52;100.00
29549;BME280;16487;53.094;8.800;2023-06-14T00:22:24;101731.78;;;16.46;100.00
29549;BME280;16487;53.094;8.800;2023-06-14T00:25:12;101742.72;;;16.44;100.00
29549;BME280;16487;53.094;8.800;2023-06-14T00:28:15;101728.06;;;16.49;100.00
29549;BME280;16487;53.094;8.800;2023-06-14T00:31:03;101729.25;;;16.39;100.00
29549;BME280;16487;53.094;8.800;2023-06-14T00:33:51;101722.31;;;16.31;100.00
29549;BME280;16487;53.094;8.800;2023-06-14T00:36:40;101720.41;;;16.28;100.00
29549;BME280;16487;53.094;8.800;2023-06-14T00:39:28;101716.88;;;16.36;100.00
29549;BME280;16487;53.094;8.800;2023-06-14T00:42:24;101710.66;;;16.20;100.00
29549;BME280;16487;53.094;8.800;2023-06-14T00:45:13;101709.97;;;16.07;100.00
29549;BME280;16487;53.094;8.800;2023-06-14T00:48:01;101700.88;;;16.24;100.00
29549;BME280;16487;53.094;8.800;2023-06-14T00:50:50;101698.44;;;16.14;100.00
29549;BME280;16487;53.094;8.800;2023-06-14T00:53:40;101694.25;;;15.96;100.00
29549;BME280;16487;53.094;8.800;2023-06-14T00:56:28;101685.88;;;16.05;100.00
29549;BME280;16487;53.094;8.800;2023-06-14T00:59:16;101676.38;;;16.34;100.00
29549;BME280;16487;53.094;8.800;2023-06-14T01:02:04;101671.88;;;16.36;100.00
29549;BME280;16487;53.094;8.800;2023-06-14T01:04:52;101677.19;;;16.13;100.00
29549;BME280;16487;53.094;8.800;2023-06-14T01:07:50;101677.69;;;15.98;100.00
29549;BME280;16487;53.094;8.800;2023-06-14T01:10:47;101670.19;;;15.95;100.00
29549;BME280;16487;53.094;8.800;2023-06-14T01:13:42;101672.22;;;15.73;100.00
29549;BME280;16487;53.094;8.800;2023-06-14T01:16:30;101658.22;;;15.82;100.00
29549;BME280;16487;53.094;8.800;2023-06-14T01:19:18;101660.06;;;15.98;100.00
29549;BME280;16487;53.094;8.800;2023-06-14T01:22:08;101651.09;;;15.90;100.00
29549;BME280;16487;53.094;8.800;2023-06-14T01:24:57;101656.31;;;15.79;100.00
29549;BME280;16487;53.094;8.800;2023-06-14T01:27:45;101646.91;;;15.73;100.00
29549;BME280;16487;53.094;8.800;2023-06-14T01:30:33;101642.47;;;15.63;100.00
29549;BME280;16487;53.094;8.800;2023-06-14T01:33:22;101630.56;;;15.59;100.00
29549;BME280;16487;53.094;8.800;2023-06-14T01:36:12;101618.81;;;15.73;100.00
29549;BME280;16487;53.094;8.800;2023-06-14T01:39:00;101618.81;;;15.73;100.00
29549;BME280;16487;53.094;8.800;2023-06-14T01:41:51;101615.38;;;15.57;100.00
29549;BME280;16487;53.094;8.800;2023-06-14T01:44:40;101612.81;;;15.50;100.00
29549;BME280;16487;53.094;8.800;2023-06-14T01:47:29;101600.25;;;15.54;100.00
29549;BME280;16487;53.094;8.800;2023-06-14T01:50:18;101603.19;;;15.38;100.00
29549;BME280;16487;53.094;8.800;2023-06-14T01:53:07;101579.09;;;15.50;100.00
29549;BME280;16487;53.094;8.800;2023-06-14T01:55:57;101585.50;;;15.29;100.00
29549;BME280;16487;53.094;8.800;2023-06-14T01:58:46;101558.25;;;15.17;100.00
29549;BME280;16487;53.094;8.800;2023-06-14T02:01:34;101526.47;;;15.07;100.00
29549;BME280;16487;53.094;8.800;2023-06-14T02:04:21;101517.91;;;15.11;100.00
29549;BME280;16487;53.094;8.800;2023-06-14T02:07:09;101482.84;;;15.15;100.00
29549;BME280;16487;53.094;8.800;2023-06-14T02:09:57;101478.41;;;15.05;100.00
29549;BME280;16487;53.094;8.800;2023-06-14T02:12:44;101462.88;;;15.13;100.00
29549;BME280;16487;53.094;8.800;2023-06-14T02:15:33;101458.50;;;15.12;100.00
29549;BME280;16487;53.094;8.800;2023-06-14T02:18:23;101458.41;;;15.03;100.00
29549;BME280;16487;53.094;8.800;2023-06-14T02:21:11;101446.22;;;14.97;100.00
29549;BME280;16487;53.094;8.800;2023-06-14T02:23:58;101460.78;;;14.83;100.00
29549;BME280;16487;53.094;8.800;2023-06-14T02:26:48;101426.03;;;14.89;100.00
29549;BME280;16487;53.094;8.800;2023-06-14T02:29:35;101410.53;;;14.98;100.00
29549;BME280;16487;53.094;8.800;2023-06-14T02:32:25;101385.75;;;14.62;100.00
29549;BME280;16487;53.094;8.800;2023-06-14T02:35:13;101346.47;;;14.40;100.00
29549;BME280;16487;53.094;8.800;2023-06-14T02:38:01;101328.22;;;14.57;100.00
29549;BME280;16487;53.094;8.800;2023-06-14T02:40:48;101309.09;;;14.65;100.00
29549;BME280;16487;53.094;8.800;2023-06-14T02:43:36;101290.72;;;14.42;100.00
29549;BME280;16487;53.094;8.800;2023-06-14T02:46:26;101271.97;;;14.61;100.00
29549;BME280;16487;53.094;8.800;2023-06-14T02:49:15;101261.88;;;14.42;100.00
29549;BME280;16487;53.094;8.800;2023-06-14T02:52:03;101247.59;;;14.27;100.00
29549;BME280;16487;53.094;8.800;2023-06-14T02:54:51;101224.88;;;14.13;100.00
29549;BME280;16487;53.094;8.800;2023-06-14T02:57:38;101201.22;;;14.14;100.00
29549;BME280;16487;53.094;8.800;2023-06-14T03:00:28;101180.41;;;14.24;100.00
29549;BME280;16487;53.094;8.800;2023-06-14T03:03:16;101172.91;;;14.21;100.00
29549;BME280;16487;53.094;8.800;2023-06-14T03:06:12;101183.91;;;14.28;100.00
29549;BME280;16487;53.094;8.800;2023-06-14T03:09:02;101166.16;;;14.31;100.00
29549;BME280;16487;53.094;8.800;2023-06-14T03:11:50;101175.69;;;14.33;100.00
29549;BME280;16487;53.094;8.800;2023-06-14T03:14:37;101154.28;;;14.27;100.00
29549;BME280;16487;53.094;8.800;2023-06-14T03:17:25;101162.50;;;14.21;100.00
29549;BME280;16487;53.094;8.800;2023-06-14T03:20:14;101161.97;;;14.14;100.00
29549;BME280;16487;53.094;8.800;2023-06-14T03:23:03;101128.00;;;14.12;100.00
29549;BME280;16487;53.094;8.800;2023-06-14T03:25:51;101128.47;;;14.10;100.00
29549;BME280;16487;53.094;8.800;2023-06-14T03:28:39;101121.44;;;14.06;100.00
29549;BME280;16487;53.094;8.800;2023-06-14T03:31:28;101108.38;;;14.12;100.00
29549;BME280;16487;53.094;8.800;2023-06-14T03:34:16;101118.03;;;14.11;100.00
29549;BME280;16487;53.094;8.800;2023-06-14T03:37:04;101119.84;;;14.05;100.00
29549;BME280;16487;53.094;8.800;2023-06-14T03:39:54;101107.44;;;14.06;100.00
29549;BME280;16487;53.094;8.800;2023-06-14T03:42:44;101091.81;;;14.05;100.00
29549;BME280;16487;53.094;8.800;2023-06-14T03:45:32;101084.88;;;14.18;100.00
29549;BME280;16487;53.094;8.800;2023-06-14T03:48:20;101085.44;;;14.26;100.00
29549;BME280;16487;53.094;8.800;2023-06-14T03:51:08;101109.81;;;14.16;100.00
29549;BME280;16487;53.094;8.800;2023-06-14T03:53:57;101097.53;;;14.23;100.00
29549;BME280;16487;53.094;8.800;2023-06-14T03:57:06;101113.19;;;14.33;100.00
29549;BME280;16487;53.094;8.800;2023-06-14T03:59:54;101128.06;;;14.21;100.00
29549;BME280;16487;53.094;8.800;2023-06-14T04:02:42;101119.41;;;14.28;100.00
29549;BME280;16487;53.094;8.800;2023-06-14T04:05:31;101109.22;;;14.21;100.00
29549;BME280;16487;53.094;8.800;2023-06-14T04:08:20;101120.56;;;14.18;100.00
29549;BME280;16487;53.094;8.800;2023-06-14T04:11:07;101101.97;;;14.11;100.00
29549;BME280;16487;53.094;8.800;2023-06-14T04:13:57;101094.81;;;14.10;100.00
29549;BME280;16487;53.094;8.800;2023-06-14T04:16:46;101088.25;;;14.26;100.00
29549;BME280;16487;53.094;8.800;2023-06-14T04:19:36;101077.47;;;14.24;100.00
29549;BME280;16487;53.094;8.800;2023-06-14T04:22:23;101095.53;;;14.23;100.00
29549;BME280;16487;53.094;8.800;2023-06-14T04:25:11;101085.81;;;14.37;100.00
29549;BME280;16487;53.094;8.800;2023-06-14T04:28:00;101107.97;;;14.44;100.00
29549;BME280;16487;53.094;8.800;2023-06-14T04:30:49;101142.88;;;14.52;100.00
29549;BME280;16487;53.094;8.800;2023-06-14T04:33:39;101143.75;;;14.70;100.00
29549;BME280;16487;53.094;8.800;2023-06-14T04:36:27;101166.59;;;14.60;100.00
29549;BME280;16487;53.094;8.800;2023-06-14T04:39:15;101181.59;;;14.66;100.00
29549;BME280;16487;53.094;8.800;2023-06-14T04:42:04;101189.56;;;14.67;100.00
29549;BME280;16487;53.094;8.800;2023-06-14T04:44:53;101189.34;;;14.83;100.00
29549;BME280;16487;53.094;8.800;2023-06-14T04:47:42;101222.53;;;14.85;100.00
29549;BME280;16487;53.094;8.800;2023-06-14T04:50:30;101220.06;;;14.96;100.00
29549;BME280;16487;53.094;8.800;2023-06-14T04:53:19;101243.66;;;14.99;100.00
29549;BME280;16487;53.094;8.800;2023-06-14T04:56:07;101257.59;;;15.11;100.00
29549;BME280;16487;53.094;8.800;2023-06-14T04:58:55;101268.63;;;15.06;100.00
29549;BME280;16487;53.094;8.800;2023-06-14T05:01:43;101286.34;;;15.24;100.00
29549;BME280;16487;53.094;8.800;2023-06-14T05:04:33;101317.44;;;15.39;100.00
29549;BME280;16487;53.094;8.800;2023-06-14T05:07:21;101324.50;;;15.43;100.00
29549;BME280;16487;53.094;8.800;2023-06-14T05:10:09;101341.09;;;15.50;100.00
29549;BME280;16487;53.094;8.800;2023-06-14T05:12:58;101357.34;;;15.55;100.00
29549;BME280;16487;53.094;8.800;2023-06-14T05:15:45;101392.03;;;15.61;100.00
29549;BME280;16487;53.094;8.800;2023-06-14T05:18:33;101406.13;;;15.70;100.00
29549;BME280;16487;53.094;8.800;2023-06-14T05:21:29;101421.78;;;15.80;100.00
29549;BME280;16487;53.094;8.800;2023-06-14T05:24:16;101425.38;;;15.90;100.00
29549;BME280;16487;53.094;8.800;2023-06-14T05:27:04;101445.53;;;15.88;100.00
29549;BME280;16487;53.094;8.800;2023-06-14T05:29:52;101447.44;;;16.00;100.00
29549;BME280;16487;53.094;8.800;2023-06-14T05:32:40;101451.84;;;16.11;100.00
29549;BME280;16487;53.094;8.800;2023-06-14T05:35:28;101447.19;;;16.17;100.00
29549;BME280;16487;53.094;8.800;2023-06-14T05:38:17;101454.41;;;16.27;100.00
29549;BME280;16487;53.094;8.800;2023-06-14T05:41:05;101463.50;;;16.40;100.00
29549;BME280;16487;53.094;8.800;2023-06-14T05:43:53;101510.94;;;16.59;100.00
29549;BME280;16487;53.094;8.800;2023-06-14T05:46:41;101559.59;;;16.78;100.00
29549;BME280;16487;53.094;8.800;2023-06-14T05:49:29;101600.63;;;16.88;100.00
29549;BME280;16487;53.094;8.800;2023-06-14T05:52:17;101612.97;;;16.90;100.00
29549;BME280;16487;53.094;8.800;2023-06-14T05:55:07;101645.41;;;17.13;100.00
29549;BME280;16487;53.094;8.800;2023-06-14T05:57:54;101666.72;;;17.14;100.00
29549;BME280;16487;53.094;8.800;2023-06-14T06:00:42;101698.84;;;17.26;100.00
29549;BME280;16487;53.094;8.800;2023-06-14T06:03:30;101718.88;;;17.28;100.00
29549;BME280;16487;53.094;8.800;2023-06-14T06:06:18;101753.16;;;17.35;100.00
29549;BME280;16487;53.094;8.800;2023-06-14T06:09:06;101777.94;;;17.40;100.00
29549;BME280;16487;53.094;8.800;2023-06-14T06:11:55;101806.19;;;17.58;100.00
29549;BME280;16487;53.094;8.800;2023-06-14T06:14:42;101834.25;;;17.62;100.00
29549;BME280;16487;53.094;8.800;2023-06-14T06:17:30;101841.94;;;17.70;100.00
29549;BME280;16487;53.094;8.800;2023-06-14T06:20:37;101872.69;;;17.77;100.00
29549;BME280;16487;53.094;8.800;2023-06-14T06:23:24;101894.34;;;17.89;100.00
29549;BME280;16487;53.094;8.800;2023-06-14T06:26:12;101905.47;;;17.93;100.00
29549;BME280;16487;53.094;8.800;2023-06-14T06:29:01;101911.75;;;17.97;100.00
29549;BME280;16487;53.094;8.800;2023-06-14T06:31:49;101921.66;;;18.10;100.00
29549;BME280;16487;53.094;8.800;2023-06-14T06:34:37;101933.75;;;18.20;100.00
29549;BME280;16487;53.094;8.800;2023-06-14T06:37:24;101943.97;;;18.26;100.00
29549;BME280;16487;53.094;8.800;2023-06-14T06:40:12;101956.06;;;18.36;100.00
29549;BME280;16487;53.094;8.800;2023-06-14T06:43:00;101974.13;;;18.48;100.00
29549;BME280;16487;53.094;8.800;2023-06-14T06:45:49;101985.28;;;18.60;100.00
29549;BME280;16487;53.094;8.800;2023-06-14T06:48:37;101996.63;;;18.69;100.00
29549;BME280;16487;53.094;8.800;2023-06-14T06:51:24;102002.25;;;18.69;100.00
29549;BME280;16487;53.094;8.800;2023-06-14T06:54:12;102013.72;;;18.75;100.00
29549;BME280;16487;53.094;8.800;2023-06-14T06:57:00;102022.50;;;18.86;100.00
29549;BME280;16487;53.094;8.800;2023-06-14T06:59:48;102014.53;;;19.02;100.00
29549;BME280;16487;53.094;8.800;2023-06-14T07:02:37;102026.59;;;19.12;100.00
29549;BME280;16487;53.094;8.800;2023-06-14T07:05:25;102036.34;;;19.20;100.00
29549;BME280;16487;53.094;8.800;2023-06-14T07:08:13;102044.53;;;19.36;100.00
29549;BME280;16487;53.094;8.800;2023-06-14T07:11:00;102048.91;;;19.28;100.00
29549;BME280;16487;53.094;8.800;2023-06-14T07:13:48;102041.06;;;19.41;100.00
29549;BME280;16487;53.094;8.800;2023-06-14T07:16:37;102049.69;;;19.65;100.00
29549;BME280;16487;53.094;8.800;2023-06-14T07:19:26;102063.50;;;19.63;100.00
29549;BME280;16487;53.094;8.800;2023-06-14T07:22:14;102051.25;;;19.66;100.00
29549;BME280;16487;53.094;8.800;2023-06-14T07:25:02;102056.72;;;19.78;100.00
29549;BME280;16487;53.094;8.800;2023-06-14T07:27:50;102063.66;;;19.77;100.00
29549;BME280;16487;53.094;8.800;2023-06-14T07:30:37;102065.19;;;19.87;100.00
29549;BME280;16487;53.094;8.800;2023-06-14T07:33:25;102068.44;;;19.95;100.00
29549;BME280;16487;53.094;8.800;2023-06-14T07:36:15;102059.44;;;20.14;100.00
29549;BME280;16487;53.094;8.800;2023-06-14T07:39:03;102062.59;;;20.16;100.00
29549;BME280;16487;53.094;8.800;2023-06-14T07:41:50;102057.25;;;20.18;100.00
29549;BME280;16487;53.094;8.800;2023-06-14T07:44:38;102064.00;;;20.12;100.00
29549;BME280;16487;53.094;8.800;2023-06-14T07:47:26;102067.63;;;20.12;100.00
29549;BME280;16487;53.094;8.800;2023-06-14T07:50:14;102065.25;;;20.20;100.00
29549;BME280;16487;53.094;8.800;2023-06-14T07:53:03;102067.75;;;20.27;100.00
29549;BME280;16487;53.094;8.800;2023-06-14T07:55:51;102065.31;;;20.43;100.00
29549;BME280;16487;53.094;8.800;2023-06-14T07:58:40;102066.00;;;20.62;100.00
29549;BME280;16487;53.094;8.800;2023-06-14T08:01:28;102073.31;;;20.78;100.00
29549;BME280;16487;53.094;8.800;2023-06-14T08:04:16;102069.25;;;20.70;100.00
29549;BME280;16487;53.094;8.800;2023-06-14T08:07:04;102071.19;;;20.64;100.00
29549;BME280;16487;53.094;8.800;2023-06-14T08:09:55;102078.53;;;20.70;100.00
29549;BME280;16487;53.094;8.800;2023-06-14T08:12:43;102077.44;;;21.00;100.00
29549;BME280;16487;53.094;8.800;2023-06-14T08:15:31;102072.09;;;21.17;100.00
29549;BME280;16487;53.094;8.800;2023-06-14T08:18:19;102070.56;;;21.16;100.00
29549;BME280;16487;53.094;8.800;2023-06-14T08:21:07;102076.50;;;21.18;100.00
29549;BME280;16487;53.094;8.800;2023-06-14T08:23:55;102066.88;;;21.39;100.00
29549;BME280;16487;53.094;8.800;2023-06-14T08:26:44;102060.25;;;21.56;100.00
29549;BME280;16487;53.094;8.800;2023-06-14T08:29:32;102069.06;;;21.73;100.00
29549;BME280;16487;53.094;8.800;2023-06-14T08:32:19;102064.25;;;21.64;100.00
29549;BME280;16487;53.094;8.800;2023-06-14T08:35:07;102061.75;;;21.81;100.00
29549;BME280;16487;53.094;8.800;2023-06-14T08:37:55;102057.94;;;21.84;100.00
29549;BME280;16487;53.094;8.800;2023-06-14T08:40:45;102058.31;;;21.92;100.00
29549;BME280;16487;53.094;8.800;2023-06-14T08:43:36;102057.44;;;21.71;100.00
29549;BME280;16487;53.094;8.800;2023-06-14T08:46:25;102063.91;;;21.86;100.00
29549;BME280;16487;53.094;8.800;2023-06-14T08:49:16;102061.94;;;21.92;100.00
29549;BME280;16487;53.094;8.800;2023-06-14T08:52:05;102068.78;;;21.86;100.00
29549;BME280;16487;53.094;8.800;2023-06-14T08:54:55;102064.28;;;22.08;100.00
29549;BME280;16487;53.094;8.800;2023-06-14T08:57:44;102073.19;;;22.16;100.00
29549;BME280;16487;53.094;8.800;2023-06-14T09:00:35;102068.25;;;22.31;100.00
29549;BME280;16487;53.094;8.800;2023-06-14T09:03:23;102068.78;;;22.49;100.00
29549;BME280;16487;53.094;8.800;2023-06-14T09:06:11;102072.25;;;22.73;100.00
29549;BME280;16487;53.094;8.800;2023-06-14T09:08:59;102061.13;;;22.70;100.00
29549;BME280;16487;53.094;8.800;2023-06-14T09:11:47;102067.16;;;22.78;100.00
29549;BME280;16487;53.094;8.800;2023-06-14T09:14:37;102073.19;;;22.65;100.00
29549;BME280;16487;53.094;8.800;2023-06-14T09:17:26;102064.22;;;22.72;100.00
29549;BME280;16487;53.094;8.800;2023-06-14T09:20:14;102063.03;;;23.39;100.00
29549;BME280;16487;53.094;8.800;2023-06-14T09:23:02;102054.03;;;24.28;100.00
29549;BME280;16487;53.094;8.800;2023-06-14T09:25:51;102047.72;;;24.98;100.00
29549;BME280;16487;53.094;8.800;2023-06-14T09:28:41;102024.84;;;26.28;100.00
29549;BME280;16487;53.094;8.800;2023-06-14T09:31:29;102025.34;;;26.32;100.00
29549;BME280;16487;53.094;8.800;2023-06-14T09:34:18;102015.22;;;27.10;100.00
29549;BME280;16487;53.094;8.800;2023-06-14T09:37:06;102013.81;;;26.76;100.00
29549;BME280;16487;53.094;8.800;2023-06-14T09:39:53;102009.72;;;26.44;100.00
29549;BME280;16487;53.094;8.800;2023-06-14T09:42:41;102001.56;;;28.03;100.00
29549;BME280;16487;53.094;8.800;2023-06-14T09:45:29;102006.31;;;27.20;100.00
29549;BME280;16487;53.094;8.800;2023-06-14T09:48:17;101993.84;;;27.93;100.00
29549;BME280;16487;53.094;8.800;2023-06-14T09:51:07;102003.63;;;27.38;100.00
29549;BME280;16487;53.094;8.800;2023-06-14T09:53:58;102010.84;;;27.45;100.00
29549;BME280;16487;53.094;8.800;2023-06-14T09:56:47;102007.28;;;27.28;100.00
29549;BME280;16487;53.094;8.800;2023-06-14T09:59:35;102005.25;;;27.23;100.00
29549;BME280;16487;53.094;8.800;2023-06-14T10:02:25;102001.69;;;28.16;100.00
29549;BME280;16487;53.094;8.800;2023-06-14T10:05:15;102004.72;;;27.24;100.00
29549;BME280;16487;53.094;8.800;2023-06-14T10:08:08;102009.19;;;27.20;100.00
29549;BME280;16487;53.094;8.800;2023-06-14T10:10:57;102003.19;;;28.47;100.00
29549;BME280;16487;53.094;8.800;2023-06-14T10:13:45;101986.84;;;27.07;100.00
29549;BME280;16487;53.094;8.800;2023-06-14T10:16:37;101995.31;;;27.35;100.00
29549;BME280;16487;53.094;8.800;2023-06-14T10:19:30;101993.50;;;27.26;100.00
29549;BME280;16487;53.094;8.800;2023-06-14T10:22:23;102002.78;;;28.13;100.00
29549;BME280;16487;53.094;8.800;2023-06-14T10:25:26;101991.00;;;27.12;100.00
29549;BME280;16487;53.094;8.800;2023-06-14T10:28:15;101985.31;;;27.06;100.00
29549;BME280;16487;53.094;8.800;2023-06-14T10:31:05;101977.22;;;27.86;100.00
29549;BME280;16487;53.094;8.800;2023-06-14T10:33:56;101979.03;;;27.54;100.00
29549;BME280;16487;53.094;8.800;2023-06-14T10:36:44;101992.25;;;26.59;100.00
29549;BME280;16487;53.094;8.800;2023-06-14T10:39:32;101989.00;;;27.42;100.00
29549;BME280;16487;53.094;8.800;2023-06-14T10:42:27;101979.03;;;27.54;100.00
29549;BME280;16487;53.094;8.800;2023-06-14T10:45:15;101984.72;;;27.19;100.00
29549;BME280;16487;53.094;8.800;2023-06-14T10:48:04;101983.78;;;27.46;100.00
29549;BME280;16487;53.094;8.800;2023-06-14T10:51:00;101970.81;;;28.52;100.00
29549;BME280;16487;53.094;8.800;2023-06-14T10:53:48;101969.47;;;28.77;100.00
29549;BME280;16487;53.094;8.800;2023-06-14T10:56:36;101952.78;;;29.32;100.00
29549;BME280;16487;53.094;8.800;2023-06-14T10:59:25;101970.69;;;27.15;100.00
29549;BME280;16487;53.094;8.800;2023-06-14T11:05:50;101992.88;;;26.19;100.00
29549;BME280;16487;53.094;8.800;2023-06-14T11:08:53;101969.31;;;26.81;100.00
29549;BME280;16487;53.094;8.800;2023-06-14T11:11:45;101966.84;;;26.39;100.00
29549;BME280;16487;53.094;8.800;2023-06-14T11:14:35;101971.06;;;25.88;100.00
29549;BME280;16487;53.094;8.800;2023-06-14T11:17:22;101971.72;;;26.60;100.00
29549;BME280;16487;53.094;8.800;2023-06-14T11:20:11;101950.03;;;27.28;100.00
29549;BME280;16487;53.094;8.800;2023-06-14T11:22:59;101941.59;;;28.72;100.00
29549;BME280;16487;53.094;8.800;2023-06-14T11:25:49;101931.13;;;28.75;100.00
29549;BME280;16487;53.094;8.800;2023-06-14T11:28:38;101928.97;;;29.50;100.00
29549;BME280;16487;53.094;8.800;2023-06-14T11:31:28;101901.97;;;29.84;100.00
29549;BME280;16487;53.094;8.800;2023-06-14T11:34:17;101919.44;;;29.42;100.00
29549;BME280;16487;53.094;8.800;2023-06-14T11:37:05;101889.06;;;30.56;100.00
29549;BME280;16487;53.094;8.800;2023-06-14T11:39:55;101893.56;;;31.11;100.00
29549;BME280;16487;53.094;8.800;2023-06-14T11:42:43;101911.97;;;29.01;100.00
29549;BME280;16487;53.094;8.800;2023-06-14T11:45:31;101930.72;;;27.69;100.00
29549;BME280;16487;53.094;8.800;2023-06-14T11:48:20;101931.81;;;26.84;100.00
29549;BME280;16487;53.094;8.800;2023-06-14T11:51:08;101943.75;;;27.35;100.00
29549;BME280;16487;53.094;8.800;2023-06-14T11:53:56;101938.53;;;28.22;100.00
29549;BME280;16487;53.094;8.800;2023-06-14T11:56:44;101931.31;;;27.27;100.00
29549;BME280;16487;53.094;8.800;2023-06-14T11:59:31;101921.34;;;28.65;100.00
29549;BME280;16487;53.094;8.800;2023-06-14T12:02:21;101901.44;;;29.73;100.00
29549;BME280;16487;53.094;8.800;2023-06-14T12:05:13;101867.84;;;31.55;100.00
29549;BME280;16487;53.094;8.800;2023-06-14T12:08:02;101882.69;;;31.38;100.00
29549;BME280;16487;53.094;8.800;2023-06-14T12:10:51;101874.19;;;31.53;100.00
29549;BME280;16487;53.094;8.800;2023-06-14T12:13:39;101875.28;;;30.62;100.00
29549;BME280;16487;53.094;8.800;2023-06-14T12:16:30;101853.44;;;32.11;100.00
29549;BME280;16487;53.094;8.800;2023-06-14T12:19:18;101845.28;;;32.30;100.00
29549;BME280;16487;53.094;8.800;2023-06-14T12:22:09;101869.69;;;30.77;100.00
29549;BME280;16487;53.094;8.800;2023-06-14T12:24:57;101908.31;;;28.21;100.00
29549;BME280;16487;53.094;8.800;2023-06-14T12:27:46;101922.78;;;27.80;100.00
29549;BME280;16487;53.094;8.800;2023-06-14T12:30:35;101927.13;;;27.28;100.00
29549;BME280;16487;53.094;8.800;2023-06-14T12:33:23;101910.97;;;28.80;100.00
29549;BME280;16487;53.094;8.800;2023-06-14T12:36:11;101882.47;;;30.69;100.00
29549;BME280;16487;53.094;8.800;2023-06-14T12:39:00;101886.97;;;30.30;100.00
29549;BME280;16487;53.094;8.800;2023-06-14T12:41:48;101892.28;;;30.00;100.00
29549;BME280;16487;53.094;8.800;2023-06-14T12:44:36;101900.41;;;28.27;100.00
29549;BME280;16487;53.094;8.800;2023-06-14T12:47:24;101923.34;;;27.49;100.00
29549;BME280;16487;53.094;8.800;2023-06-14T12:50:11;101922.25;;;27.17;100.00
29549;BME280;16487;53.094;8.800;2023-06-14T12:52:59;101924.41;;;26.59;100.00
29549;BME280;16487;53.094;8.800;2023-06-14T12:55:49;101925.34;;;26.10;100.00
29549;BME280;16487;53.094;8.800;2023-06-14T12:58:36;101921.66;;;27.89;100.00
29549;BME280;16487;53.094;8.800;2023-06-14T13:01:24;101895.41;;;29.26;100.00
29549;BME280;16487;53.094;8.800;2023-06-14T13:04:12;101898.25;;;28.76;100.00
29549;BME280;16487;53.094;8.800;2023-06-14T13:06:59;101915.97;;;28.13;100.00
29549;BME280;16487;53.094;8.800;2023-06-14T13:09:47;101923.84;;;27.13;100.00
29549;BME280;16487;53.094;8.800;2023-06-14T13:12:36;101925.66;;;26.69;100.00
29549;BME280;16487;53.094;8.800;2023-06-14T13:15:24;101924.34;;;27.52;100.00
29549;BME280;16487;53.094;8.800;2023-06-14T13:18:12;101900.84;;;29.11;100.00
29549;BME280;16487;53.094;8.800;2023-06-14T13:21:00;101861.88;;;31.11;100.00
29549;BME280;16487;53.094;8.800;2023-06-14T13:23:47;101841.31;;;32.40;100.00
29549;BME280;16487;53.094;8.800;2023-06-14T13:26:35;101850.91;;;31.30;100.00
29549;BME280;16487;53.094;8.800;2023-06-14T13:29:25;101836.66;;;32.88;100.00
29549;BME280;16487;53.094;8.800;2023-06-14T13:32:12;101841.94;;;32.54;100.00
29549;BME280;16487;53.094;8.800;2023-06-14T13:35:00;101821.97;;;34.14;100.00
29549;BME280;16487;53.094;8.800;2023-06-14T13:37:48;101824.38;;;33.40;100.00
29549;BME280;16487;53.094;8.800;2023-06-14T13:40:35;101822.84;;;33.54;100.00
29549;BME280;16487;53.094;8.800;2023-06-14T13:43:23;101820.91;;;33.19;100.00
29549;BME280;16487;53.094;8.800;2023-06-14T13:46:12;101825.53;;;33.15;100.00
29549;BME280;16487;53.094;8.800;2023-06-14T13:49:00;101813.19;;;33.67;100.00
29549;BME280;16487;53.094;8.800;2023-06-14T13:51:50;101844.50;;;31.24;100.00
29549;BME280;16487;53.094;8.800;2023-06-14T13:54:38;101868.13;;;29.33;100.00
29549;BME280;16487;53.094;8.800;2023-06-14T13:57:25;101879.66;;;28.95;100.00
29549;BME280;16487;53.094;8.800;2023-06-14T14:00:13;101892.19;;;28.37;100.00
29549;BME280;16487;53.094;8.800;2023-06-14T14:03:03;101886.41;;;27.99;100.00
29549;BME280;16487;53.094;8.800;2023-06-14T14:05:51;101893.22;;;27.67;100.00
29549;BME280;16487;53.094;8.800;2023-06-14T14:08:38;101897.03;;;27.51;100.00
29549;BME280;16487;53.094;8.800;2023-06-14T14:11:26;101896.78;;;27.49;100.00
29549;BME280;16487;53.094;8.800;2023-06-14T14:14:14;101900.69;;;27.10;100.00
29549;BME280;16487;53.094;8.800;2023-06-14T14:17:02;101891.63;;;27.42;100.00
29549;BME280;16487;53.094;8.800;2023-06-14T14:19:53;101871.81;;;29.14;100.00
29549;BME280;16487;53.094;8.800;2023-06-14T14:22:41;101852.09;;;30.47;100.00
29549;BME280;16487;53.094;8.800;2023-06-14T14:25:29;101840.91;;;30.90;100.00
29549;BME280;16487;53.094;8.800;2023-06-14T14:28:17;101825.81;;;32.23;100.00
29549;BME280;16487;53.094;8.800;2023-06-14T14:31:04;101804.34;;;33.27;100.00
29549;BME280;16487;53.094;8.800;2023-06-14T14:33:52;101795.25;;;33.84;100.00
29549;BME280;16487;53.094;8.800;2023-06-14T14:36:41;101826.25;;;31.01;100.00